Time;durP1;ratioP1;P1;durP2;ratioP2;P2;SDS_P1;SDS_P2;PMS_P1;PMS_P2;Temp;Humidity;BMP_temperature;BMP_pressure;BME280_temperature;BME280_humidity;BME280_pressure;Samples;Min_cycle;Max_cycle;Signal;HPM_P1;HPM_P2
2023/05/04 00:02:15;;;;;;;1.37;0.90;;;;;;;;;;5064522;27;88858;-49
2023/05/04 00:04:43;;;;;;;0.70;0.70;;;;;;;;;;5064772;27;87175;-48
2023/05/04 00:07:11;;;;;;;2.00;1.20;;;;;;;;;;5064934;27;87077;-48
2023/05/04 00:09:40;;;;;;;1.67;1.30;;;;;;;;;;5064263;27;90017;-49
2023/05/04 00:12:09;;;;;;;1.73;1.47;;;;;;;;;;5059922;27;89410;-48
2023/05/04 00:14:37;;;;;;;0.83;0.83;;;;;;;;;;5059800;27;87105;-48
2023/05/04 00:17:06;;;;;;;1.63;1.00;;;;;;;;;;5054561;27;88485;-49
2023/05/04 00:19:38;;;;;;;3.37;1.20;;;;;;;;;;5051737;27;89286;-49
2023/05/04 00:22:07;;;;;;;2.40;1.13;;;;;;;;;;5058215;27;87044;-49
2023/05/04 00:24:35;;;;;;;1.13;0.90;;;;;;;;;;5046099;27;87040;-49
2023/05/04 00:27:03;;;;;;;0.70;0.70;;;;;;;;;;5062225;27;87800;-49
2023/05/04 00:29:32;;;;;;;1.00;0.90;;;;;;;;;;5048102;27;89400;-49
2023/05/04 00:32:00;;;;;;;0.83;0.70;;;;;;;;;;5063639;27;87778;-49
2023/05/04 00:34:29;;;;;;;0.73;0.70;;;;;;;;;;5062882;27;88012;-48
2023/05/04 00:36:59;;;;;;;2.70;0.80;;;;;;;;;;5052074;27;87097;-49
2023/05/04 00:39:28;;;;;;;1.77;0.90;;;;;;;;;;5059720;27;88131;-48
2023/05/04 00:41:56;;;;;;;1.97;0.80;;;;;;;;;;5063235;27;88805;-48
2023/05/04 00:44:25;;;;;;;1.10;0.90;;;;;;;;;;5049724;27;88654;-48
2023/05/04 00:46:53;;;;;;;0.70;0.70;;;;;;;;;;5061977;27;87929;-49
2023/05/04 00:49:21;;;;;;;0.70;0.70;;;;;;;;;;5061643;27;89220;-50
2023/05/04 00:51:50;;;;;;;1.67;0.77;;;;;;;;;;5062645;27;88870;-49
2023/05/04 00:54:20;;;;;;;1.37;0.87;;;;;;;;;;5057078;27;87085;-49
2023/05/04 00:56:48;;;;;;;0.97;0.73;;;;;;;;;;5061844;27;87101;-48
2023/05/04 00:59:16;;;;;;;0.70;0.70;;;;;;;;;;5044733;27;88843;-50
2023/05/04 01:01:45;;;;;;;1.17;1.00;;;;;;;;;;5056168;27;89922;-49
2023/05/04 01:04:13;;;;;;;2.27;0.97;;;;;;;;;;5062480;27;87056;-49
2023/05/04 01:06:43;;;;;;;0.70;0.70;;;;;;;;;;5060562;27;88418;-48
2023/05/04 01:09:12;;;;;;;1.73;0.60;;;;;;;;;;5062741;27;88194;-48
2023/05/04 01:11:43;;;;;;;1.37;0.80;;;;;;;;;;5060197;27;88535;-49
2023/05/04 01:14:11;;;;;;;0.63;0.60;;;;;;;;;;5059075;27;88195;-48
2023/05/04 01:16:39;;;;;;;0.70;0.60;;;;;;;;;;5060289;27;86557;-48
2023/05/04 01:19:08;;;;;;;0.73;0.73;;;;;;;;;;5061618;27;89120;-48
2023/05/04 01:21:38;;;;;;;0.90;0.90;;;;;;;;;;5062505;27;89017;-48
2023/05/04 01:24:06;;;;;;;0.60;0.60;;;;;;;;;;5060469;27;88483;-48
2023/05/04 01:26:36;;;;;;;1.67;0.97;;;;;;;;;;5056410;27;87110;-50
2023/05/04 01:29:05;;;;;;;2.47;0.70;;;;;;;;;;5058702;27;88120;-49
2023/05/04 01:31:34;;;;;;;0.93;0.63;;;;;;;;;;5067159;27;87839;-48
2023/05/04 01:34:02;;;;;;;0.50;0.50;;;;;;;;;;5055844;27;87139;-49
2023/05/04 01:36:30;;;;;;;1.20;0.77;;;;;;;;;;5044549;27;88654;-48
2023/05/04 01:39:00;;;;;;;2.07;0.60;;;;;;;;;;5049248;27;88144;-49
2023/05/04 01:41:28;;;;;;;2.47;0.90;;;;;;;;;;5054330;27;87777;-49
2023/05/04 01:43:57;;;;;;;0.50;0.50;;;;;;;;;;5062164;27;87067;-49
2023/05/04 01:46:25;;;;;;;0.70;0.70;;;;;;;;;;5062826;27;86983;-48
2023/05/04 01:48:54;;;;;;;0.80;0.80;;;;;;;;;;5060760;27;90024;-48
2023/05/04 01:51:22;;;;;;;0.63;0.63;;;;;;;;;;5046081;27;89936;-48
2023/05/04 01:53:51;;;;;;;0.50;0.50;;;;;;;;;;5062173;27;86992;-48
2023/05/04 01:56:20;;;;;;;1.73;0.80;;;;;;;;;;5061309;27;87755;-48
2023/05/04 01:58:49;;;;;;;1.57;1.10;;;;;;;;;;5063073;27;88325;-48
2023/05/04 02:01:17;;;;;;;1.70;0.90;;;;;;;;;;5061032;27;89012;-49
2023/05/04 02:03:45;;;;;;;0.60;0.60;;;;;;;;;;5062207;27;87028;-48
2023/05/04 02:06:14;;;;;;;4.40;0.70;;;;;;;;;;5062768;27;86364;-48
2023/05/04 02:08:43;;;;;;;1.73;1.00;;;;;;;;;;5060871;27;88245;-48
2023/05/04 02:11:13;;;;;;;0.63;0.63;;;;;;;;;;5054321;27;88698;-48
2023/05/04 02:13:43;;;;;;;0.63;0.63;;;;;;;;;;5063004;27;87964;-48
2023/05/04 02:16:11;;;;;;;1.23;0.50;;;;;;;;;;5061283;27;88760;-49
2023/05/04 02:18:39;;;;;;;3.27;0.73;;;;;;;;;;5059555;27;87933;-50
2023/05/04 02:21:08;;;;;;;1.83;1.10;;;;;;;;;;5058336;27;87947;-50
2023/05/04 02:23:36;;;;;;;0.63;0.63;;;;;;;;;;5062141;27;87110;-48
2023/05/04 02:26:05;;;;;;;0.50;0.50;;;;;;;;;;5046932;27;87529;-50
2023/05/04 02:28:33;;;;;;;0.43;0.43;;;;;;;;;;5042622;27;89286;-49
2023/05/04 02:31:03;;;;;;;0.40;0.40;;;;;;;;;;5050449;27;88967;-48
2023/05/04 02:33:31;;;;;;;0.63;0.60;;;;;;;;;;5056588;27;87174;-48
2023/05/04 02:35:59;;;;;;;2.73;0.63;;;;;;;;;;5041827;27;86960;-48
2023/05/04 02:38:28;;;;;;;0.50;0.50;;;;;;;;;;5052142;27;90396;-48
2023/05/04 02:40:57;;;;;;;1.63;0.70;;;;;;;;;;5060131;27;88803;-48
2023/05/04 02:43:25;;;;;;;0.70;0.70;;;;;;;;;;5061961;27;87012;-48
2023/05/04 02:45:53;;;;;;;0.90;0.70;;;;;;;;;;5057469;27;87023;-48
2023/05/04 02:48:23;;;;;;;0.60;0.60;;;;;;;;;;5051801;27;88976;-48
2023/05/04 02:50:52;;;;;;;0.97;0.60;;;;;;;;;;5061005;27;87955;-50
2023/05/04 02:53:20;;;;;;;0.80;0.73;;;;;;;;;;5053142;27;87394;-48
2023/05/04 02:55:48;;;;;;;2.43;0.60;;;;;;;;;;5060784;27;86263;-50
2023/05/04 02:58:17;;;;;;;0.40;0.40;;;;;;;;;;5050536;27;88139;-48
2023/05/04 03:00:45;;;;;;;0.60;0.53;;;;;;;;;;5060728;27;87752;-48
2023/05/04 03:03:13;;;;;;;3.40;1.17;;;;;;;;;;5060984;27;88006;-49
2023/05/04 03:05:43;;;;;;;0.50;0.50;;;;;;;;;;5058547;27;87080;-48
2023/05/04 03:08:11;;;;;;;0.67;0.67;;;;;;;;;;5061039;27;89143;-48
2023/05/04 03:10:40;;;;;;;0.50;0.50;;;;;;;;;;5059626;27;88920;-48
2023/05/04 03:13:08;;;;;;;1.00;0.77;;;;;;;;;;5061832;27;87081;-49
2023/05/04 03:15:36;;;;;;;0.80;0.60;;;;;;;;;;5057928;27;88870;-48
2023/05/04 03:18:05;;;;;;;0.53;0.53;;;;;;;;;;5060503;27;89210;-49
2023/05/04 03:20:33;;;;;;;0.40;0.40;;;;;;;;;;5061023;27;86669;-49
2023/05/04 03:23:03;;;;;;;0.50;0.50;;;;;;;;;;5054804;27;86997;-48
2023/05/04 03:25:31;;;;;;;3.20;0.73;;;;;;;;;;5051119;27;87414;-49
2023/05/04 03:27:59;;;;;;;2.07;0.50;;;;;;;;;;5056775;27;90194;-48
2023/05/04 03:30:28;;;;;;;0.50;0.50;;;;;;;;;;5043754;27;89999;-48
2023/05/04 03:32:56;;;;;;;1.30;0.70;;;;;;;;;;5065187;27;87063;-48
2023/05/04 03:35:24;;;;;;;0.50;0.50;;;;;;;;;;5063124;27;87082;-48
2023/05/04 03:37:53;;;;;;;0.43;0.40;;;;;;;;;;5061955;27;87992;-48
2023/05/04 03:40:23;;;;;;;0.80;0.50;;;;;;;;;;5058049;27;89050;-48
2023/05/04 03:42:51;;;;;;;0.67;0.67;;;;;;;;;;5064234;27;87175;-48
2023/05/04 03:45:20;;;;;;;0.80;0.80;;;;;;;;;;5063647;27;86327;-48
2023/05/04 03:47:49;;;;;;;1.60;1.50;;;;;;;;;;5059194;27;88083;-48
2023/05/04 03:50:17;;;;;;;0.97;0.60;;;;;;;;;;5058924;27;88796;-49
2023/05/04 03:52:45;;;;;;;1.10;0.80;;;;;;;;;;5050047;27;87791;-49
2023/05/04 03:55:14;;;;;;;2.33;0.97;;;;;;;;;;5056952;27;87038;-48
2023/05/04 03:57:44;;;;;;;1.70;0.70;;;;;;;;;;5064201;27;89144;-48
2023/05/04 04:00:13;;;;;;;0.90;0.80;;;;;;;;;;5062412;27;88991;-48
2023/05/04 04:02:41;;;;;;;2.90;1.30;;;;;;;;;;5060516;27;87046;-49
2023/05/04 04:05:10;;;;;;;0.80;0.80;;;;;;;;;;5063473;27;86967;-49
2023/05/04 04:07:38;;;;;;;0.77;0.77;;;;;;;;;;5063902;27;89041;-49
2023/05/04 04:10:07;;;;;;;0.77;0.77;;;;;;;;;;5064263;27;88903;-49
2023/05/04 04:12:35;;;;;;;1.00;0.90;;;;;;;;;;5064218;27;87103;-49
2023/05/04 04:15:06;;;;;;;1.47;0.80;;;;;;;;;;5063692;27;87178;-48
2023/05/04 04:17:34;;;;;;;0.83;0.83;;;;;;;;;;5062282;27;90060;-48
2023/05/04 04:20:02;;;;;;;2.20;0.80;;;;;;;;;;5059209;27;88951;-49
2023/05/04 04:22:31;;;;;;;0.90;0.80;;;;;;;;;;5054373;27;87215;-48
2023/05/04 04:25:00;;;;;;;1.17;1.07;;;;;;;;;;5051080;27;88288;-48
2023/05/04 04:27:28;;;;;;;1.20;1.10;;;;;;;;;;5061487;27;89116;-50
2023/05/04 04:29:56;;;;;;;0.73;0.73;;;;;;;;;;5049050;27;88878;-48
2023/05/04 04:32:26;;;;;;;1.27;0.73;;;;;;;;;;5064746;27;86993;-48
2023/05/04 04:34:54;;;;;;;1.00;1.00;;;;;;;;;;5063965;27;87079;-48
2023/05/04 04:37:23;;;;;;;1.13;0.87;;;;;;;;;;5048396;27;89052;-48
2023/05/04 04:39:51;;;;;;;1.37;1.20;;;;;;;;;;5047298;27;89046;-48
2023/05/04 04:42:20;;;;;;;1.33;0.80;;;;;;;;;;5057942;27;89497;-48
2023/05/04 04:44:49;;;;;;;1.70;1.10;;;;;;;;;;5053435;27;87101;-48
2023/05/04 04:47:17;;;;;;;1.23;1.10;;;;;;;;;;5063859;27;89177;-48
2023/05/04 04:49:47;;;;;;;1.33;1.00;;;;;;;;;;5063262;27;87785;-48
2023/05/04 04:52:16;;;;;;;1.20;1.00;;;;;;;;;;5062506;27;87602;-48
2023/05/04 04:54:44;;;;;;;1.57;1.23;;;;;;;;;;5062467;27;87198;-48
2023/05/04 04:57:12;;;;;;;1.63;1.37;;;;;;;;;;5057499;27;89224;-48
2023/05/04 04:59:41;;;;;;;3.37;1.50;;;;;;;;;;5061789;27;87903;-49
2023/05/04 05:02:10;;;;;;;3.33;1.50;;;;;;;;;;5059180;27;87060;-50
2023/05/04 05:04:39;;;;;;;3.10;1.77;;;;;;;;;;5044759;27;87045;-49
2023/05/04 05:07:09;;;;;;;1.40;1.23;;;;;;;;;;5061548;27;89032;-51
2023/05/04 05:09:38;;;;;;;3.17;1.57;;;;;;;;;;5059525;27;87590;-52
2023/05/04 05:12:06;;;;;;;1.67;1.40;;;;;;;;;;5062077;27;87498;-50
2023/05/04 05:14:34;;;;;;;1.47;1.07;;;;;;;;;;5058569;27;87049;-52
2023/05/04 05:17:03;;;;;;;1.50;1.37;;;;;;;;;;5062511;27;88110;-51
2023/05/04 05:19:35;;;;;;;2.20;1.40;;;;;;;;;;5060004;27;88942;-52
2023/05/04 05:22:04;;;;;;;1.73;1.00;;;;;;;;;;5063640;27;87117;-51
2023/05/04 05:24:34;;;;;;;1.60;1.30;;;;;;;;;;5048207;27;86078;-50
2023/05/04 05:27:02;;;;;;;1.50;1.10;;;;;;;;;;5069374;27;88948;-52
2023/05/04 05:29:31;;;;;;;1.50;1.40;;;;;;;;;;5051374;27;87923;-51
2023/05/04 05:31:59;;;;;;;2.20;2.00;;;;;;;;;;5055996;27;90518;-51
2023/05/04 05:34:27;;;;;;;3.30;1.87;;;;;;;;;;5060361;27;87037;-50
2023/05/04 05:36:56;;;;;;;1.23;1.13;;;;;;;;;;5057955;27;89119;-51
2023/05/04 05:39:24;;;;;;;1.10;1.00;;;;;;;;;;5044033;27;88594;-49
2023/05/04 05:41:57;;;;;;;1.10;1.00;;;;;;;;;;5061498;27;87142;-49
2023/05/04 05:44:25;;;;;;;1.47;1.37;;;;;;;;;;5051304;27;87048;-50
2023/05/04 05:46:54;;;;;;;1.70;1.30;;;;;;;;;;5058523;27;88212;-50
2023/05/04 05:49:23;;;;;;;2.63;1.37;;;;;;;;;;5061832;27;88824;-49
2023/05/04 05:51:51;;;;;;;1.40;1.30;;;;;;;;;;5062407;27;87097;-49
2023/05/04 05:54:20;;;;;;;2.93;1.10;;;;;;;;;;5061253;27;87178;-51
2023/05/04 05:56:48;;;;;;;2.07;1.17;;;;;;;;;;5060266;27;90058;-49
2023/05/04 05:59:18;;;;;;;4.33;1.50;;;;;;;;;;5053685;27;89693;-49
2023/05/04 06:01:46;;;;;;;2.17;1.20;;;;;;;;;;5063251;27;86908;-49
2023/05/04 06:04:15;;;;;;;5.93;1.43;;;;;;;;;;5061621;27;87024;-49
2023/05/04 06:06:43;;;;;;;1.47;0.90;;;;;;;;;;5061750;27;88014;-49
2023/05/04 06:09:13;;;;;;;1.20;1.13;;;;;;;;;;5063929;27;88852;-48
2023/05/04 06:11:41;;;;;;;1.20;1.10;;;;;;;;;;5051130;27;87869;-50
2023/05/04 06:14:10;;;;;;;3.10;1.13;;;;;;;;;;5063404;27;86240;-48
2023/05/04 06:16:40;;;;;;;1.73;1.00;;;;;;;;;;5059462;27;89522;-48
2023/05/04 06:19:08;;;;;;;1.57;1.27;;;;;;;;;;5043819;27;86970;-49
2023/05/04 06:21:36;;;;;;;3.17;1.60;;;;;;;;;;5061617;27;87932;-51
2023/05/04 06:24:05;;;;;;;1.30;1.17;;;;;;;;;;5062584;27;87456;-48
2023/05/04 06:26:34;;;;;;;1.93;1.03;;;;;;;;;;5061425;27;88237;-50
2023/05/04 06:29:02;;;;;;;4.10;1.17;;;;;;;;;;5061825;27;88075;-48
2023/05/04 06:31:30;;;;;;;1.93;1.20;;;;;;;;;;5060412;27;87257;-50
2023/05/04 06:34:00;;;;;;;4.60;1.20;;;;;;;;;;5056681;27;87464;-50
2023/05/04 06:36:29;;;;;;;1.03;0.93;;;;;;;;;;5058476;27;88068;-51
2023/05/04 06:38:57;;;;;;;1.57;1.00;;;;;;;;;;5062731;27;89040;-52
2023/05/04 06:41:25;;;;;;;1.23;1.13;;;;;;;;;;5061149;27;87038;-50
2023/05/04 06:43:54;;;;;;;1.30;0.93;;;;;;;;;;5062254;27;87148;-50
2023/05/04 06:46:25;;;;;;;1.37;0.87;;;;;;;;;;5061051;27;90050;-50
2023/05/04 06:48:54;;;;;;;2.30;1.07;;;;;;;;;;5061775;27;89755;-52
2023/05/04 06:51:23;;;;;;;1.40;1.10;;;;;;;;;;5057759;27;87170;-51
2023/05/04 06:53:52;;;;;;;2.20;1.23;;;;;;;;;;5060420;27;87076;-51
2023/05/04 06:56:21;;;;;;;1.50;1.03;;;;;;;;;;5061282;27;88009;-53
2023/05/04 06:58:49;;;;;;;4.03;1.00;;;;;;;;;;5062049;27;88758;-51
2023/05/04 07:01:17;;;;;;;1.50;1.20;;;;;;;;;;5052812;27;87048;-52
2023/05/04 07:03:46;;;;;;;1.53;1.03;;;;;;;;;;5043643;27;86367;-50
2023/05/04 07:06:15;;;;;;;1.17;1.13;;;;;;;;;;5060440;27;88970;-49
2023/05/04 07:08:45;;;;;;;2.03;1.57;;;;;;;;;;5059288;27;88920;-52
2023/05/04 07:11:13;;;;;;;4.37;2.27;;;;;;;;;;5047831;27;88003;-50
2023/05/04 07:13:41;;;;;;;2.30;2.10;;;;;;;;;;5061322;27;87019;-50
2023/05/04 07:16:10;;;;;;;6.03;2.17;;;;;;;;;;5061767;27;87735;-50
2023/05/04 07:18:39;;;;;;;2.77;1.93;;;;;;;;;;5061469;27;89050;-50
2023/05/04 07:21:10;;;;;;;1.57;1.27;;;;;;;;;;5060301;27;87691;-50
2023/05/04 07:23:45;;;;;;;1.70;1.30;;;;;;;;;;5056859;27;87014;-50
2023/05/04 07:26:13;;;;;;;2.00;1.80;;;;;;;;;;5043156;27;89105;-50
2023/05/04 07:28:43;;;;;;;1.40;1.00;;;;;;;;;;5061258;27;88724;-50
2023/05/04 07:31:11;;;;;;;2.87;1.57;;;;;;;;;;5050159;27;87077;-50
2023/05/04 07:33:40;;;;;;;1.43;1.07;;;;;;;;;;5041081;27;86991;-50
2023/05/04 07:36:08;;;;;;;1.40;1.30;;;;;;;;;;5056497;27;89052;-50
2023/05/04 07:38:36;;;;;;;1.13;1.03;;;;;;;;;;5061548;27;90064;-49
2023/05/04 07:41:07;;;;;;;1.30;1.20;;;;;;;;;;5051201;27;87210;-50
2023/05/04 07:43:35;;;;;;;1.70;1.17;;;;;;;;;;5057638;27;87071;-50
2023/05/04 07:46:03;;;;;;;2.40;1.40;;;;;;;;;;5061757;27;89221;-51
2023/05/04 07:48:34;;;;;;;2.20;1.57;;;;;;;;;;5046912;27;87773;-50
2023/05/04 07:51:02;;;;;;;1.40;1.30;;;;;;;;;;5051333;27;88709;-51
2023/05/04 07:53:30;;;;;;;1.40;1.10;;;;;;;;;;5061797;27;86715;-49
2023/05/04 07:55:59;;;;;;;1.77;1.20;;;;;;;;;;5059086;27;88179;-53
2023/05/04 07:58:29;;;;;;;2.40;1.73;;;;;;;;;;5060584;27;88769;-51
2023/05/04 08:00:57;;;;;;;1.30;1.20;;;;;;;;;;5060468;27;87952;-49
2023/05/04 08:03:26;;;;;;;1.00;0.90;;;;;;;;;;5057359;27;87187;-49
2023/05/04 08:05:54;;;;;;;1.27;1.17;;;;;;;;;;5061470;27;88022;-47
2023/05/04 08:08:22;;;;;;;2.97;1.80;;;;;;;;;;5058796;27;88848;-50
2023/05/04 08:10:52;;;;;;;1.57;1.17;;;;;;;;;;5048318;27;86983;-47
2023/05/04 08:13:21;;;;;;;2.27;1.67;;;;;;;;;;5061877;27;86988;-47
2023/05/04 08:15:50;;;;;;;1.50;1.40;;;;;;;;;;5061798;27;88080;-48
2023/05/04 08:18:19;;;;;;;3.60;2.20;;;;;;;;;;5064770;27;88977;-47
2023/05/04 08:20:47;;;;;;;3.47;1.43;;;;;;;;;;5064754;27;86943;-50
2023/05/04 08:23:17;;;;;;;5.27;1.17;;;;;;;;;;5064432;27;87030;-49
2023/05/04 08:25:45;;;;;;;1.40;0.97;;;;;;;;;;5046653;27;90025;-48
2023/05/04 08:28:14;;;;;;;3.10;1.10;;;;;;;;;;5064697;27;88836;-48
2023/05/04 08:30:42;;;;;;;2.27;1.10;;;;;;;;;;5064301;27;87077;-47
2023/05/04 08:33:12;;;;;;;1.93;1.00;;;;;;;;;;5064584;27;87035;-49
2023/05/04 08:35:40;;;;;;;1.47;1.37;;;;;;;;;;5062471;27;89309;-48
2023/05/04 08:38:08;;;;;;;1.00;0.90;;;;;;;;;;5063962;27;87929;-48
2023/05/04 08:40:37;;;;;;;1.20;1.10;;;;;;;;;;5054067;27;89368;-48
2023/05/04 08:43:05;;;;;;;2.60;1.20;;;;;;;;;;5053659;27;86244;-48
2023/05/04 08:45:34;;;;;;;3.37;1.53;;;;;;;;;;5064728;27;88060;-48
2023/05/04 08:48:02;;;;;;;1.40;1.30;;;;;;;;;;5063796;27;88767;-47
2023/05/04 08:50:32;;;;;;;1.00;0.90;;;;;;;;;;5063795;27;88012;-47
2023/05/04 08:53:01;;;;;;;1.37;1.27;;;;;;;;;;5063605;27;87024;-48
2023/05/04 08:55:30;;;;;;;1.23;1.07;;;;;;;;;;5061810;27;89415;-48
2023/05/04 08:57:58;;;;;;;1.40;1.30;;;;;;;;;;5058345;27;88829;-48
2023/05/04 09:00:26;;;;;;;2.77;1.20;;;;;;;;;;5061834;27;86974;-47
2023/05/04 09:02:55;;;;;;;1.67;1.57;;;;;;;;;;5064314;27;87194;-47
2023/05/04 09:05:23;;;;;;;1.77;1.20;;;;;;;;;;5063276;27;88060;-47
2023/05/04 09:07:53;;;;;;;1.60;1.50;;;;;;;;;;5064417;27;88879;-48
2023/05/04 09:10:22;;;;;;;1.27;1.17;;;;;;;;;;5064052;27;87068;-48
2023/05/04 09:12:52;;;;;;;2.57;1.40;;;;;;;;;;5064147;27;86996;-48
2023/05/04 09:15:21;;;;;;;1.60;1.50;;;;;;;;;;5054385;27;90192;-47
2023/05/04 09:17:56;;;;;;;1.13;1.00;;;;;;;;;;5053804;27;90059;-47
2023/05/04 09:20:25;;;;;;;6.30;1.20;;;;;;;;;;5062472;27;87070;-47
2023/05/04 09:23:06;;;;;;;2.20;1.33;;;;;;;;;;5064033;27;86900;-47
2023/05/04 09:25:34;;;;;;;2.20;1.30;;;;;;;;;;5062911;27;88236;-47
2023/05/04 09:28:02;;;;;;;1.73;1.60;;;;;;;;;;5063531;27;89025;-50
2023/05/04 09:30:31;;;;;;;1.53;1.43;;;;;;;;;;5063233;27;86983;-48
2023/05/04 09:32:59;;;;;;;1.30;1.20;;;;;;;;;;5063824;27;86369;-47
2023/05/04 09:35:28;;;;;;;1.73;1.03;;;;;;;;;;5062820;27;89059;-48
2023/05/04 09:38:02;;;;;;;4.73;1.50;;;;;;;;;;5063530;27;88828;-48
2023/05/04 09:40:32;;;;;;;2.97;1.37;;;;;;;;;;5062909;27;87964;-48
2023/05/04 09:43:00;;;;;;;1.90;1.17;;;;;;;;;;5063285;27;87053;-48
2023/05/04 09:45:38;;;;;;;1.63;1.00;;;;;;;;;;5061588;27;89284;-49
2023/05/04 09:48:17;;;;;;;1.67;1.20;;;;;;;;;;5063316;27;89070;-49
2023/05/04 09:50:49;;;;;;;0.77;0.77;;;;;;;;;;5063612;27;87011;-49
2023/05/04 09:53:18;;;;;;;1.53;1.40;;;;;;;;;;5063480;27;87225;-49
2023/05/04 09:55:48;;;;;;;1.50;1.30;;;;;;;;;;5063250;27;86918;-50
2023/05/04 09:58:17;;;;;;;1.33;1.23;;;;;;;;;;5063208;27;88675;-49
2023/05/04 10:00:46;;;;;;;1.47;1.20;;;;;;;;;;5062459;27;88848;-48
2023/05/04 10:03:14;;;;;;;1.67;1.33;;;;;;;;;;5062963;27;86931;-49
2023/05/04 10:05:42;;;;;;;1.93;1.53;;;;;;;;;;5058565;27;88800;-49
2023/05/04 10:08:11;;;;;;;1.97;1.77;;;;;;;;;;5055851;27;88369;-47
2023/05/04 10:10:39;;;;;;;1.80;1.03;;;;;;;;;;5062428;27;87108;-47
2023/05/04 10:13:09;;;;;;;2.63;1.63;;;;;;;;;;5051508;27;88161;-47
2023/05/04 10:15:37;;;;;;;1.53;1.30;;;;;;;;;;5082635;27;89165;-47
2023/05/04 10:18:08;;;;;;;1.87;1.20;;;;;;;;;;5082645;27;89012;-46
2023/05/04 10:20:55;;;;;;;2.57;1.70;;;;;;;;;;5083285;27;86751;-47
2023/05/04 10:23:31;;;;;;;1.60;1.20;;;;;;;;;;5083048;27;86545;-49
2023/05/04 10:26:06;;;;;;;2.20;1.60;;;;;;;;;;5082033;27;87982;-47
2023/05/04 10:28:38;;;;;;;4.33;1.17;;;;;;;;;;5082509;27;87701;-47
2023/05/04 10:31:08;;;;;;;1.87;1.37;;;;;;;;;;5082560;27;87663;-47
2023/05/04 10:33:39;;;;;;;2.97;1.23;;;;;;;;;;5083275;27;87028;-48
2023/05/04 10:36:08;;;;;;;1.60;1.37;;;;;;;;;;5083121;27;88144;-47
2023/05/04 10:38:37;;;;;;;1.50;1.13;;;;;;;;;;5083060;27;87799;-47
2023/05/04 10:41:14;;;;;;;1.67;1.37;;;;;;;;;;5082729;27;87012;-47
2023/05/04 10:43:47;;;;;;;3.00;1.50;;;;;;;;;;5082999;27;86915;-47
2023/05/04 10:46:20;;;;;;;2.40;1.60;;;;;;;;;;5082896;27;89136;-49
2023/05/04 10:48:48;;;;;;;3.53;1.50;;;;;;;;;;5082728;27;88925;-47
2023/05/04 10:51:19;;;;;;;3.27;1.40;;;;;;;;;;5082788;27;87103;-47
2023/05/04 10:53:48;;;;;;;1.80;1.30;;;;;;;;;;5082973;27;87030;-47
2023/05/04 10:56:23;;;;;;;5.00;2.10;;;;;;;;;;5081768;27;90061;-48
2023/05/04 10:58:52;;;;;;;2.47;2.00;;;;;;;;;;5082132;27;89922;-49
2023/05/04 11:01:21;;;;;;;2.07;1.87;;;;;;;;;;5045523;27;87907;-49
2023/05/04 11:03:49;;;;;;;2.60;1.97;;;;;;;;;;5053627;27;87137;-49
2023/05/04 11:06:18;;;;;;;2.03;1.67;;;;;;;;;;5060887;27;89094;-48
2023/05/04 11:08:59;;;;;;;4.43;2.20;;;;;;;;;;5060259;27;87951;-48
2023/05/04 11:11:27;;;;;;;2.33;2.13;;;;;;;;;;5062477;27;87011;-48
2023/05/04 11:13:57;;;;;;;3.50;2.27;;;;;;;;;;5061743;27;86343;-50
2023/05/04 11:16:25;;;;;;;2.33;2.13;;;;;;;;;;5061681;27;88308;-49
2023/05/04 11:18:54;;;;;;;2.43;2.00;;;;;;;;;;5064192;27;88947;-49
2023/05/04 11:21:25;;;;;;;6.07;2.50;;;;;;;;;;5060391;27;88020;-50
2023/05/04 11:23:56;;;;;;;2.73;2.00;;;;;;;;;;5062325;27;86991;-50
2023/05/04 11:26:25;;;;;;;2.60;2.23;;;;;;;;;;5061607;27;88277;-50
2023/05/04 11:28:53;;;;;;;3.83;2.07;;;;;;;;;;5061253;27;88861;-50
2023/05/04 11:31:23;;;;;;;1.80;1.50;;;;;;;;;;5061377;27;86985;-49
2023/05/04 11:33:53;;;;;;;4.67;2.60;;;;;;;;;;5062102;27;87126;-50
2023/05/04 11:36:21;;;;;;;5.87;3.03;;;;;;;;;;5061469;27;89154;-51
2023/05/04 11:38:50;;;;;;;4.60;2.63;;;;;;;;;;5062223;27;87626;-47
2023/05/04 11:41:18;;;;;;;4.40;2.37;;;;;;;;;;5062142;27;86939;-48
2023/05/04 11:43:47;;;;;;;2.13;1.77;;;;;;;;;;5061909;27;86879;-49
2023/05/04 11:46:15;;;;;;;3.23;2.00;;;;;;;;;;5061259;27;88900;-48
2023/05/04 11:48:46;;;;;;;4.97;2.57;;;;;;;;;;5049102;27;89708;-49
2023/05/04 11:51:14;;;;;;;6.57;2.60;;;;;;;;;;5049904;27;87469;-47
2023/05/04 11:53:42;;;;;;;2.60;2.03;;;;;;;;;;5065283;27;86988;-47
2023/05/04 11:56:10;;;;;;;2.27;2.07;;;;;;;;;;5064752;27;88958;-47
2023/05/04 11:58:39;;;;;;;1.97;1.60;;;;;;;;;;5064695;27;88862;-47
2023/05/04 12:01:07;;;;;;;3.50;2.13;;;;;;;;;;5064967;27;86749;-47
2023/05/04 12:03:38;;;;;;;3.03;2.17;;;;;;;;;;5065511;27;86234;-49
2023/05/04 12:06:32;;;;;;;2.70;2.20;;;;;;;;;;5062435;27;88073;-47
2023/05/04 12:09:04;;;;;;;2.07;1.63;;;;;;;;;;5065095;27;88903;-47
2023/05/04 12:11:33;;;;;;;2.60;2.40;;;;;;;;;;5062368;27;88121;-47
2023/05/04 12:14:05;;;;;;;4.83;2.17;;;;;;;;;;5062760;27;87057;-49
2023/05/04 12:16:33;;;;;;;2.83;2.03;;;;;;;;;;5058363;27;88953;-47
2023/05/04 12:19:02;;;;;;;2.10;1.90;;;;;;;;;;5064652;27;88750;-47
2023/05/04 12:21:32;;;;;;;3.57;2.13;;;;;;;;;;5065472;27;86909;-47
2023/05/04 12:24:01;;;;;;;1.90;1.70;;;;;;;;;;5065061;27;86849;-47
2023/05/04 12:26:30;;;;;;;3.00;1.80;;;;;;;;;;5064517;27;88419;-46
2023/05/04 12:28:58;;;;;;;1.90;1.50;;;;;;;;;;5064192;27;87822;-48
2023/05/04 12:31:27;;;;;;;2.17;1.33;;;;;;;;;;5065229;27;87006;-47
2023/05/04 12:33:55;;;;;;;3.47;1.93;;;;;;;;;;5064706;27;86857;-47
2023/05/04 12:36:24;;;;;;;2.97;1.70;;;;;;;;;;5064121;27;88020;-47
2023/05/04 12:38:53;;;;;;;2.13;1.77;;;;;;;;;;5063957;27;90035;-47
2023/05/04 12:41:22;;;;;;;3.37;1.77;;;;;;;;;;5063982;27;87037;-48
2023/05/04 12:43:50;;;;;;;2.23;1.53;;;;;;;;;;5064596;27;86943;-47
2023/05/04 12:46:21;;;;;;;2.83;1.83;;;;;;;;;;5064118;27;89233;-47
2023/05/04 12:48:49;;;;;;;2.13;1.53;;;;;;;;;;5064423;27;87928;-48
2023/05/04 12:51:17;;;;;;;3.77;2.30;;;;;;;;;;5064774;27;87695;-48
2023/05/04 12:53:46;;;;;;;5.53;2.63;;;;;;;;;;5064209;27;86248;-48
2023/05/04 12:56:15;;;;;;;1.97;1.87;;;;;;;;;;5064188;27;89302;-48
2023/05/04 12:58:44;;;;;;;3.57;2.30;;;;;;;;;;5063619;27;87922;-48
2023/05/04 13:01:12;;;;;;;2.43;2.23;;;;;;;;;;5063746;27;88009;-48
2023/05/04 13:03:40;;;;;;;3.07;2.53;;;;;;;;;;5063518;27;87019;-48
2023/05/04 13:06:09;;;;;;;2.93;2.40;;;;;;;;;;5063650;27;87101;-48
2023/05/04 13:08:37;;;;;;;5.17;3.10;;;;;;;;;;5063913;27;88932;-48
2023/05/04 13:11:06;;;;;;;4.60;2.27;;;;;;;;;;5064525;27;86969;-48
2023/05/04 13:13:36;;;;;;;4.77;2.53;;;;;;;;;;5064103;27;86964;-48
2023/05/04 13:16:04;;;;;;;4.73;2.60;;;;;;;;;;5063664;27;88156;-46
2023/05/04 13:18:33;;;;;;;4.37;2.50;;;;;;;;;;5064207;27;87856;-48
2023/05/04 13:21:01;;;;;;;5.87;2.60;;;;;;;;;;5063925;27;86932;-48
2023/05/04 13:23:30;;;;;;;2.80;2.00;;;;;;;;;;5063907;27;87010;-50
2023/05/04 13:25:58;;;;;;;3.67;2.27;;;;;;;;;;5063253;27;88966;-48
2023/05/04 13:28:26;;;;;;;3.20;2.30;;;;;;;;;;5062963;27;89934;-48
2023/05/04 13:30:57;;;;;;;2.67;2.20;;;;;;;;;;5063727;27;87039;-48
2023/05/04 13:33:26;;;;;;;7.70;2.43;;;;;;;;;;5063297;27;87005;-48
2023/05/04 13:35:58;;;;;;;3.43;2.13;;;;;;;;;;5063272;27;86871;-48
2023/05/04 13:38:26;;;;;;;2.70;1.80;;;;;;;;;;5062946;27;88947;-48
2023/05/04 13:40:54;;;;;;;3.73;2.50;;;;;;;;;;5064142;27;86793;-48
2023/05/04 13:43:23;;;;;;;3.83;2.40;;;;;;;;;;5063874;27;86196;-49
2023/05/04 13:45:51;;;;;;;9.30;2.03;;;;;;;;;;5063347;27;88265;-49
2023/05/04 13:48:21;;;;;;;2.27;1.73;;;;;;;;;;5063057;27;87744;-48
2023/05/04 13:50:50;;;;;;;3.63;2.60;;;;;;;;;;5062899;27;87981;-48
2023/05/04 13:53:18;;;;;;;2.33;2.13;;;;;;;;;;5063182;27;86982;-48
2023/05/04 13:55:47;;;;;;;2.53;1.90;;;;;;;;;;5063312;27;89310;-49
2023/05/04 13:58:15;;;;;;;2.00;1.67;;;;;;;;;;5063465;27;88805;-48
2023/05/04 14:00:44;;;;;;;3.40;2.37;;;;;;;;;;5063579;27;86963;-48
2023/05/04 14:03:12;;;;;;;4.93;2.10;;;;;;;;;;5063389;27;87049;-50
2023/05/04 14:05:42;;;;;;;4.00;2.43;;;;;;;;;;5063485;27;88680;-48
2023/05/04 14:08:10;;;;;;;6.17;1.83;;;;;;;;;;5063308;27;87571;-49
2023/05/04 14:10:39;;;;;;;3.07;2.10;;;;;;;;;;5063288;27;87173;-47
2023/05/04 14:13:07;;;;;;;2.93;2.10;;;;;;;;;;5063112;27;87025;-47
2023/05/04 14:15:36;;;;;;;4.13;2.77;;;;;;;;;;5061764;27;89123;-48
2023/05/04 14:18:04;;;;;;;3.73;2.20;;;;;;;;;;5063131;27;88780;-48
2023/05/04 14:20:32;;;;;;;2.10;1.90;;;;;;;;;;5063321;27;86932;-48
2023/05/04 14:23:02;;;;;;;4.80;2.37;;;;;;;;;;5062712;27;88209;-47
2023/05/04 14:25:30;;;;;;;5.00;2.27;;;;;;;;;;5062450;27;86995;-46
2023/05/04 14:27:59;;;;;;;4.63;2.17;;;;;;;;;;5062543;27;89046;-48
2023/05/04 14:30:27;;;;;;;3.00;2.40;;;;;;;;;;5061869;27;87038;-49
2023/05/04 14:32:56;;;;;;;2.83;2.10;;;;;;;;;;5062567;27;86320;-48
2023/05/04 14:35:25;;;;;;;3.07;1.93;;;;;;;;;;5061482;27;89042;-47
2023/05/04 14:37:53;;;;;;;2.77;1.97;;;;;;;;;;5061262;27;87583;-47
2023/05/04 14:40:23;;;;;;;4.03;2.00;;;;;;;;;;5061120;27;87989;-47
2023/05/04 14:42:52;;;;;;;4.80;2.50;;;;;;;;;;5062130;27;87044;-47
2023/05/04 14:45:20;;;;;;;2.70;2.23;;;;;;;;;;5061475;27;89376;-47
2023/05/04 14:47:48;;;;;;;2.27;1.80;;;;;;;;;;5061486;27;87891;-47
2023/05/04 14:50:17;;;;;;;3.43;1.60;;;;;;;;;;5061834;27;86880;-48
2023/05/04 14:52:45;;;;;;;3.57;1.80;;;;;;;;;;5062104;27;87033;-47
2023/05/04 14:55:13;;;;;;;2.70;2.00;;;;;;;;;;5061858;27;89268;-47